Time;durP1;ratioP1;P1;durP2;ratioP2;P2;SDS_P1;SDS_P2;PMS_P1;PMS_P2;Temp;Humidity;BMP_temperature;BMP_pressure;BME280_temperature;BME280_humidity;BME280_pressure;Samples;Min_cycle;Max_cycle;Signal;HPM_P1;HPM_P2
2022/07/18 00:01:59;;;;;;;7.07;6.18;;;15.10;81.30;;;;;;4959949;28;20038;-90
2022/07/18 00:04:26;;;;;;;7.22;5.80;;;15.10;83.00;;;;;;4978674;28;20038;-89
2022/07/18 00:06:52;;;;;;;7.40;5.57;;;15.10;1.00;;;;;;4964163;28;20042;-90
2022/07/18 00:09:19;;;;;;;9.23;7.10;;;15.00;88.40;;;;;;4972564;28;20046;-90
2022/07/18 00:11:45;;;;;;;9.82;6.72;;;14.90;85.00;;;;;;4968382;28;20120;-90
2022/07/18 00:14:11;;;;;;;8.07;6.70;;;14.90;99.90;;;;;;4972833;28;20093;-91
2022/07/18 00:16:37;;;;;;;11.40;6.63;;;14.90;99.90;;;;;;4965280;28;20272;-90
2022/07/18 00:19:03;;;;;;;8.25;6.75;;;14.80;99.90;;;;;;4980530;28;20619;-90
2022/07/18 00:21:29;;;;;;;7.65;6.30;;;14.80;99.90;;;;;;4969251;28;20049;-89
2022/07/18 00:23:58;;;;;;;10.05;6.60;;;14.80;99.90;;;;;;4969145;28;20128;-91
2022/07/18 00:26:24;;;;;;;9.10;6.63;;;14.80;99.90;;;;;;4983769;28;20045;-90
2022/07/18 00:28:50;;;;;;;9.57;6.85;;;14.80;99.90;;;;;;4983511;28;20044;-90
2022/07/18 00:31:15;;;;;;;8.95;6.32;;;14.70;51.60;;;;;;4976220;28;20057;-90
2022/07/18 00:33:41;;;;;;;10.40;6.47;;;14.80;99.80;;;;;;4985562;28;20512;-89
2022/07/18 00:36:07;;;;;;;6.93;5.78;;;14.70;65.50;;;;;;4969869;28;20046;-90
2022/07/18 00:38:33;;;;;;;11.10;6.80;;;14.60;70.00;;;;;;4957330;28;20132;-90
2022/07/18 00:40:58;;;;;;;8.52;5.85;;;14.60;99.90;;;;;;4975935;28;20193;-90
2022/07/18 00:43:27;;;;;;;8.05;6.38;;;14.60;99.90;;;;;;4962218;28;20124;-90
2022/07/18 00:45:52;;;;;;;8.18;6.20;;;14.60;99.90;;;;;;4972508;28;20198;-89
2022/07/18 00:48:19;;;;;;;6.68;5.55;;;14.50;99.90;;;;;;4982236;28;20050;-89
2022/07/18 00:50:45;;;;;;;7.72;5.30;;;14.40;99.90;;;;;;4970406;28;20474;-90
2022/07/18 00:53:11;;;;;;;8.77;6.65;;;14.40;99.90;;;;;;4980501;28;20124;-91
2022/07/18 00:55:42;;;;;;;8.48;6.10;;;14.40;99.90;;;;;;4971101;28;20145;-91
2022/07/18 00:58:11;;;;;;;10.02;6.50;;;14.30;99.90;;;;;;4990051;28;20057;-90
2022/07/18 01:03:21;;;;;;;8.00;5.95;;;14.30;86.40;;;;;;4999383;28;20506;-90
2022/07/18 01:05:47;;;;;;;6.15;4.85;;;14.20;99.90;;;;;;4971684;28;20069;-89
2022/07/18 01:08:13;;;;;;;5.30;4.45;;;14.10;99.90;;;;;;4980102;28;20048;-91
2022/07/18 01:10:38;;;;;;;5.05;4.22;;;14.10;99.90;;;;;;4968496;28;20513;-91
2022/07/18 01:13:04;;;;;;;6.85;5.22;;;14.10;99.90;;;;;;4972558;28;20060;-92
2022/07/18 01:15:30;;;;;;;5.70;4.28;;;14.10;99.90;;;;;;4966665;28;20189;-91
2022/07/18 01:17:56;;;;;;;8.23;5.72;;;14.10;99.90;;;;;;4966436;28;20053;-91
2022/07/18 01:20:21;;;;;;;5.72;4.88;;;14.10;99.90;;;;;;4959975;28;20129;-91
2022/07/18 01:22:47;;;;;;;5.82;4.68;;;14.00;99.90;;;;;;4975790;28;20040;-92
2022/07/18 01:25:16;;;;;;;6.57;5.43;;;14.10;99.90;;;;;;4968506;28;20041;-90
2022/07/18 01:27:42;;;;;;;8.25;5.80;;;14.10;99.90;;;;;;4968120;28;20116;-91
2022/07/18 01:30:09;;;;;;;9.60;6.65;;;14.10;99.90;;;;;;4963750;28;20180;-90
2022/07/18 01:32:35;;;;;;;6.97;5.15;;;14.10;99.90;;;;;;4971144;28;20044;-90
2022/07/18 01:35:01;;;;;;;9.65;6.93;;;14.00;99.90;;;;;;4964573;28;20039;-89
2022/07/18 01:37:26;;;;;;;8.85;6.32;;;14.10;99.90;;;;;;4962528;28;20049;-90
2022/07/18 01:39:52;;;;;;;7.38;6.15;;;14.10;99.90;;;;;;4974833;28;20048;-90
2022/07/18 01:42:18;;;;;;;8.73;6.78;;;14.10;99.90;;;;;;4981269;28;20041;-91
2022/07/18 01:44:44;;;;;;;8.38;6.05;;;14.10;99.90;;;;;;4969454;28;20430;-91
2022/07/18 01:47:12;;;;;;;8.82;6.57;;;14.00;99.90;;;;;;4977801;28;20125;-90
2022/07/18 01:49:38;;;;;;;8.52;6.28;;;14.00;99.90;;;;;;4964771;28;20041;-91
2022/07/18 01:52:04;;;;;;;8.00;6.43;;;14.00;99.90;;;;;;4963809;28;20045;-91
2022/07/18 01:54:32;;;;;;;8.80;6.35;;;14.00;99.90;;;;;;4977572;28;20144;-91
2022/07/18 01:57:03;;;;;;;7.97;5.80;;;14.00;99.90;;;;;;4972535;28;20030;-89
2022/07/18 01:59:29;;;;;;;10.25;6.20;;;14.00;99.90;;;;;;4971079;28;20057;-90
2022/07/18 02:01:55;;;;;;;9.10;6.20;;;14.00;99.90;;;;;;4982289;28;20049;-91
2022/07/18 02:04:59;;;;;;;8.85;6.32;;;14.00;99.90;;;;;;4976088;28;20042;-90
2022/07/18 02:07:07;;;;;;;8.85;6.32;;;14.00;99.90;;;;;;4976867;28;20041;-91
2022/07/18 02:09:33;;;;;;;9.15;6.68;;;14.00;99.90;;;;;;4980640;28;20506;-91
2022/07/18 02:11:58;;;;;;;9.50;6.85;;;14.10;99.90;;;;;;4982450;28;20057;-90
2022/07/18 02:14:24;;;;;;;10.15;6.90;;;14.10;99.90;;;;;;4968835;28;20046;-91
2022/07/18 02:16:50;;;;;;;10.50;6.40;;;14.00;98.60;;;;;;4983414;28;20040;-90
2022/07/18 02:19:15;;;;;;;6.78;5.80;;;14.00;99.90;;;;;;4962355;28;20043;-90
2022/07/18 02:21:41;;;;;;;8.65;6.53;;;14.00;66.60;;;;;;4975134;28;20041;-91
2022/07/18 02:24:07;;;;;;;7.47;6.07;;;13.80;82.30;;;;;;4969298;28;20042;-90
2022/07/18 02:26:34;;;;;;;7.55;6.05;;;13.70;71.50;;;;;;4977983;28;20482;-91
2022/07/18 02:29:03;;;;;;;7.28;5.78;;;13.70;69.40;;;;;;4968087;28;20038;-91
2022/07/18 02:31:29;;;;;;;8.38;6.30;;;13.70;35.70;;;;;;4988271;28;20092;-91
2022/07/18 02:33:54;;;;;;;9.50;6.55;;;13.60;83.40;;;;;;4967025;28;20046;-91
2022/07/18 02:36:20;;;;;;;9.30;6.70;;;13.70;57.50;;;;;;4972569;28;20041;-91
2022/07/18 02:38:46;;;;;;;7.65;6.20;;;13.70;91.00;;;;;;4972564;28;20045;-92
2022/07/18 02:41:11;;;;;;;9.45;6.55;;;13.70;92.20;;;;;;4980447;28;20056;-90
2022/07/18 02:43:37;;;;;;;8.23;6.18;;;13.70;99.90;;;;;;4974568;28;20320;-92
2022/07/18 02:46:04;;;;;;;10.65;6.78;;;13.70;99.40;;;;;;4985863;28;20072;-92
2022/07/18 02:48:30;;;;;;;13.48;6.68;;;13.80;96.40;;;;;;4968887;28;20494;-91
2022/07/18 02:50:56;;;;;;;10.57;7.00;;;13.80;99.90;;;;;;4976420;28;20046;-91
2022/07/18 02:53:24;;;;;;;8.85;6.68;;;13.70;99.90;;;;;;4980379;28;20050;-90
2022/07/18 02:55:51;;;;;;;9.15;6.88;;;13.80;99.90;;;;;;4964538;28;20125;-91
2022/07/18 02:58:17;;;;;;;9.05;6.75;;;13.80;99.90;;;;;;4969415;28;20080;-91
2022/07/18 03:00:43;;;;;;;8.45;6.50;;;13.90;61.80;;;;;;4977373;28;20041;-91
2022/07/18 03:03:09;;;;;;;8.55;6.75;;;13.90;23.60;;;;;;4965498;28;20049;-90
2022/07/18 03:05:35;;;;;;;8.80;6.32;;;14.00;5.30;;;;;;4972591;28;20461;-92
2022/07/18 03:08:00;;;;;;;10.82;7.80;;;14.00;1.00;;;;;;4978680;28;20433;-91
2022/07/18 03:10:26;;;;;;;11.30;6.63;;;14.10;1.00;;;;;;4987781;28;20053;-91
2022/07/18 03:12:52;;;;;;;10.25;6.70;;;14.10;33.50;;;;;;4985318;28;20084;-90
2022/07/18 03:15:17;;;;;;;10.75;7.18;;;14.10;20.90;;;;;;4978213;28;20064;-91
2022/07/18 03:17:43;;;;;;;9.23;6.72;;;14.10;52.40;;;;;;4973083;28;20041;-90
2022/07/18 03:20:09;;;;;;;11.85;6.78;;;14.20;48.70;;;;;;4974177;28;20081;-91
2022/07/18 03:22:38;;;;;;;9.52;7.13;;;14.10;29.50;;;;;;4969869;28;20038;-91
2022/07/18 03:25:04;;;;;;;9.25;6.15;;;14.20;1.00;;;;;;4974083;28;20290;-92
2022/07/18 03:27:30;;;;;;;13.35;6.78;;;14.10;1.00;;;;;;4988069;28;20041;-90
2022/07/18 03:29:56;;;;;;;10.90;7.00;;;14.20;1.00;;;;;;4971385;28;20053;-90
2022/07/18 03:32:22;;;;;;;12.88;7.18;;;14.20;1.00;;;;;;4994047;28;20533;-91
2022/07/18 03:34:47;;;;;;;10.43;7.18;;;14.20;1.00;;;;;;4971715;28;20046;-91
2022/07/18 03:37:13;;;;;;;8.65;6.72;;;14.20;1.00;;;;;;4979786;28;20042;-91
2022/07/18 03:39:39;;;;;;;11.63;7.07;;;14.30;1.00;;;;;;4970040;28;20038;-91
2022/07/18 03:42:05;;;;;;;9.55;7.07;;;14.20;1.00;;;;;;4980544;28;20474;-91
2022/07/18 03:44:30;;;;;;;10.05;6.57;;;14.10;1.00;;;;;;4978842;28;20128;-91
2022/07/18 03:46:56;;;;;;;10.90;6.65;;;14.10;1.00;;;;;;4965821;28;20042;-91
2022/07/18 03:49:22;;;;;;;11.88;6.82;;;14.10;1.00;;;;;;4965268;28;20096;-92
2022/07/18 03:51:48;;;;;;;9.98;7.00;;;14.10;1.00;;;;;;4984029;28;20531;-92
2022/07/18 03:54:14;;;;;;;8.38;6.32;;;14.10;1.00;;;;;;4969902;28;20418;-91
2022/07/18 03:56:39;;;;;;;9.23;5.95;;;14.20;1.00;;;;;;4967491;28;20056;-91
2022/07/18 03:59:05;;;;;;;12.55;7.50;;;14.20;1.00;;;;;;4979747;28;20131;-91
2022/07/18 04:01:31;;;;;;;8.40;6.43;;;14.30;1.00;;;;;;4980132;28;20052;-91
2022/07/18 04:03:56;;;;;;;11.18;7.10;;;14.30;1.00;;;;;;4980098;28;20279;-91
2022/07/18 04:06:22;;;;;;;9.30;7.15;;;14.40;1.00;;;;;;4978127;28;20493;-91
2022/07/18 04:08:48;;;;;;;10.52;7.03;;;14.40;1.00;;;;;;4958566;28;20050;-91
2022/07/18 04:11:14;;;;;;;8.02;6.35;;;14.30;1.00;;;;;;4961902;28;20049;-91
2022/07/18 04:13:39;;;;;;;9.68;6.70;;;14.40;1.00;;;;;;4969953;28;20371;-90
2022/07/18 04:16:05;;;;;;;8.23;6.85;;;14.40;1.00;;;;;;4983103;28;20096;-91
2022/07/18 04:18:31;;;;;;;7.68;6.07;;;14.40;1.00;;;;;;4970600;28;20461;-91
2022/07/18 04:20:56;;;;;;;9.23;6.90;;;14.60;1.00;;;;;;4973226;28;20137;-92
2022/07/18 04:23:22;;;;;;;11.60;7.13;;;14.50;1.00;;;;;;4979408;28;20129;-92
2022/07/18 04:25:49;;;;;;;10.60;7.20;;;14.60;1.00;;;;;;4972021;28;20125;-90
2022/07/18 04:28:14;;;;;;;9.93;6.88;;;14.70;1.00;;;;;;4965011;28;20046;-91
2022/07/18 04:30:42;;;;;;;9.35;7.05;;;14.80;1.00;;;;;;4963691;28;20140;-92
2022/07/18 04:33:10;;;;;;;9.73;6.63;;;14.90;1.00;;;;;;4972660;28;20093;-92
2022/07/18 04:35:38;;;;;;;10.27;6.93;;;15.00;1.00;;;;;;4971680;28;20116;-91
2022/07/18 04:38:09;;;;;;;7.97;6.70;;;15.00;1.00;;;;;;4972516;28;20042;-91
2022/07/18 04:40:35;;;;;;;12.57;6.63;;;15.10;1.00;;;;;;4968687;28;20292;-91
2022/07/18 04:43:01;;;;;;;8.57;6.25;;;15.20;99.90;;;;;;4963920;28;20193;-90
2022/07/18 04:45:26;;;;;;;10.30;6.10;;;15.30;99.90;;;;;;4970331;28;20459;-91
2022/07/18 04:47:54;;;;;;;9.27;6.43;;;15.40;99.90;;;;;;4960796;28;20129;-91
2022/07/18 04:50:24;;;;;;;8.63;5.82;;;15.50;99.90;;;;;;4971233;28;20050;-90
2022/07/18 04:52:50;;;;;;;10.82;6.15;;;15.60;99.90;;;;;;4965010;28;20081;-92
2022/07/18 04:55:17;;;;;;;10.15;6.15;;;15.70;99.90;;;;;;4962463;28;20046;-90
2022/07/18 04:57:43;;;;;;;9.63;6.10;;;15.80;99.90;;;;;;4961792;28;20517;-90
2022/07/18 05:00:18;;;;;;;11.55;5.90;;;15.90;99.90;;;;;;4981402;28;20113;-91
2022/07/18 05:02:45;;;;;;;8.80;6.20;;;16.00;99.90;;;;;;4961498;28;20035;-91
2022/07/18 05:05:13;;;;;;;10.10;6.30;;;16.10;99.90;;;;;;4961662;28;20081;-91
2022/07/18 05:07:41;;;;;;;9.30;5.85;;;16.10;99.90;;;;;;4954029;28;20081;-92
2022/07/18 05:10:08;;;;;;;8.00;5.30;;;16.20;99.90;;;;;;4970248;28;20062;-91
2022/07/18 05:12:41;;;;;;;9.05;6.18;;;16.30;99.90;;;;;;4962057;28;20050;-92
2022/07/18 05:15:12;;;;;;;7.47;5.60;;;16.30;99.90;;;;;;4967286;28;20108;-91
2022/07/18 05:17:39;;;;;;;9.27;5.70;;;16.40;99.90;;;;;;4959449;28;20065;-93
2022/07/18 05:20:07;;;;;;;8.82;5.57;;;16.50;99.90;;;;;;4961451;28;20109;-92
2022/07/18 05:22:34;;;;;;;8.90;5.50;;;16.50;99.90;;;;;;4960399;28;20043;-90
2022/07/18 05:25:01;;;;;;;9.52;5.95;;;16.50;99.90;;;;;;4971880;28;20085;-91
2022/07/18 05:27:26;;;;;;;7.93;5.68;;;16.50;99.90;;;;;;4961076;28;20061;-90
2022/07/18 05:29:52;;;;;;;8.57;5.57;;;16.60;99.90;;;;;;4979200;28;20043;-92
2022/07/18 05:32:18;;;;;;;7.80;5.35;;;16.70;99.90;;;;;;4965853;28;20136;-91
2022/07/18 05:34:44;;;;;;;8.60;5.10;;;16.80;99.90;;;;;;4972053;28;20081;-92
2022/07/18 05:37:09;;;;;;;8.18;5.22;;;16.80;99.90;;;;;;4964043;28;20054;-92
2022/07/18 05:39:35;;;;;;;8.32;5.80;;;16.90;99.90;;;;;;4979980;28;20045;-92
2022/07/18 05:42:02;;;;;;;7.05;4.97;;;17.00;99.90;;;;;;4965219;28;20433;-92
2022/07/18 05:44:31;;;;;;;9.60;5.40;;;17.00;99.90;;;;;;4963056;28;20038;-92
2022/07/18 05:46:57;;;;;;;8.15;5.45;;;17.20;99.90;;;;;;4959831;28;20055;-93
2022/07/18 05:49:23;;;;;;;6.88;4.90;;;17.30;99.90;;;;;;4969620;28;20100;-91
2022/07/18 05:51:48;;;;;;;7.90;5.38;;;17.40;99.90;;;;;;4972172;28;20050;-90
2022/07/18 05:54:18;;;;;;;9.23;5.35;;;17.50;99.90;;;;;;4965889;28;20049;-91
2022/07/18 05:56:46;;;;;;;6.10;4.68;;;17.50;94.10;;;;;;4961560;28;20051;-90
2022/07/18 05:59:12;;;;;;;6.93;4.97;;;17.50;66.30;;;;;;4949369;28;20097;-90
2022/07/18 06:01:37;;;;;;;8.70;4.75;;;17.60;17.90;;;;;;4951370;28;20437;-91
2022/07/18 06:04:03;;;;;;;7.03;4.60;;;17.60;29.20;;;;;;4950682;28;20039;-91
2022/07/18 06:06:30;;;;;;;7.13;4.80;;;17.70;28.60;;;;;;4952406;28;20102;-91
2022/07/18 06:08:55;;;;;;;8.32;4.75;;;17.90;73.20;;;;;;4942158;28;20054;-91
2022/07/18 06:11:27;;;;;;;7.85;4.40;;;18.00;17.70;;;;;;4947248;28;20046;-92
2022/07/18 06:13:52;;;;;;;6.53;4.53;;;18.20;7.50;;;;;;4954987;28;20113;-91
2022/07/18 06:16:18;;;;;;;9.10;4.28;;;18.40;1.00;;;;;;4949624;28;20043;-92
2022/07/18 06:18:44;;;;;;;5.72;4.20;;;18.60;20.20;;;;;;4951714;28;20050;-91
2022/07/18 06:21:09;;;;;;;5.90;4.07;;;18.80;24.20;;;;;;4950448;28;20038;-90
2022/07/18 06:23:35;;;;;;;5.82;3.78;;;18.80;1.00;;;;;;4940811;29;20042;-91
2022/07/18 06:26:02;;;;;;;5.57;4.00;;;18.90;1.00;;;;;;4950830;28;20043;-91
2022/07/18 06:28:28;;;;;;;7.70;3.67;;;19.10;1.00;;;;;;4937152;28;20121;-91
2022/07/18 06:30:55;;;;;;;7.28;3.85;;;19.20;1.00;;;;;;4941766;28;20106;-91
2022/07/18 06:33:20;;;;;;;5.57;3.45;;;19.30;1.00;;;;;;4945902;28;20697;-90
2022/07/18 06:35:47;;;;;;;5.45;3.25;;;19.60;1.00;;;;;;4940097;28;20042;-91
2022/07/18 06:38:14;;;;;;;5.68;3.60;;;19.90;1.00;;;;;;4949631;28;20169;-91
2022/07/18 06:40:40;;;;;;;6.07;3.00;;;20.00;1.00;;;;;;4941283;28;20043;-91
2022/07/18 06:43:06;;;;;;;4.38;2.72;;;20.00;1.00;;;;;;4947297;28;20045;-92
2022/07/18 06:45:34;;;;;;;5.10;3.10;;;19.80;1.00;;;;;;4945778;28;20043;-91
2022/07/18 06:48:00;;;;;;;4.22;3.13;;;19.80;1.00;;;;;;4949760;28;20444;-91
2022/07/18 06:50:26;;;;;;;6.55;2.80;;;19.80;1.00;;;;;;4950645;28;20043;-92
2022/07/18 06:52:52;;;;;;;6.90;2.97;;;19.80;1.00;;;;;;4950342;28;20054;-91
2022/07/18 06:55:17;;;;;;;5.85;2.90;;;20.00;1.00;;;;;;4944719;28;20094;-90
2022/07/18 06:57:45;;;;;;;6.30;3.10;;;20.10;1.00;;;;;;4961891;28;20133;-91
2022/07/18 07:00:15;;;;;;;7.30;2.92;;;20.30;1.00;;;;;;4976056;28;20043;-91
2022/07/18 07:02:46;;;;;;;4.72;2.70;;;20.60;1.00;;;;;;4980897;28;20525;-91
2022/07/18 07:05:13;;;;;;;4.53;2.83;;;20.70;99.90;;;;;;4975063;28;20045;-90
2022/07/18 07:07:39;;;;;;;7.68;2.60;;;20.90;99.90;;;;;;4968709;28;20073;-91
2022/07/18 07:10:05;;;;;;;13.27;3.00;;;21.10;99.90;;;;;;4969550;28;20465;-91
2022/07/18 07:12:38;;;;;;;13.65;3.03;;;21.20;99.90;;;;;;4979650;28;20128;-92
2022/07/18 07:15:05;;;;;;;8.27;2.63;;;21.40;99.90;;;;;;4959297;28;20056;-91
2022/07/18 07:17:31;;;;;;;7.18;2.50;;;21.30;99.90;;;;;;4954979;28;20133;-90
2022/07/18 07:19:57;;;;;;;8.18;2.60;;;21.70;99.90;;;;;;4964056;28;20129;-92
2022/07/18 07:22:22;;;;;;;5.88;2.47;;;22.00;99.90;;;;;;4960648;28;20413;-90
2022/07/18 07:24:48;;;;;;;4.43;2.38;;;21.80;99.90;;;;;;4967660;28;20519;-91
2022/07/18 07:27:14;;;;;;;4.72;2.42;;;21.90;99.90;;;;;;4955460;28;20034;-91
2022/07/18 07:29:40;;;;;;;6.97;2.17;;;22.20;99.90;;;;;;4956858;28;20114;-91
2022/07/18 07:32:05;;;;;;;5.32;2.50;;;22.50;99.90;;;;;;4973752;28;20043;-90
2022/07/18 07:34:31;;;;;;;6.53;2.70;;;22.50;99.90;;;;;;4972274;28;20043;-91
2022/07/18 07:36:57;;;;;;;4.72;2.40;;;22.40;99.90;;;;;;4981355;28;20463;-91
2022/07/18 07:39:23;;;;;;;4.88;2.35;;;22.50;99.90;;;;;;4968432;28;20119;-90
2022/07/18 07:41:51;;;;;;;5.10;2.38;;;22.60;99.90;;;;;;4968916;28;20054;-90
2022/07/18 07:44:17;;;;;;;3.55;2.08;;;22.70;99.90;;;;;;4974801;28;20137;-91
2022/07/18 07:46:43;;;;;;;4.30;2.33;;;22.80;99.90;;;;;;4960972;28;20153;-91
2022/07/18 07:49:08;;;;;;;4.50;2.70;;;22.90;99.90;;;;;;4973090;28;20043;-92
2022/07/18 07:51:34;;;;;;;3.72;2.00;;;23.20;99.90;;;;;;4967156;28;20076;-90
2022/07/18 07:54:00;;;;;;;4.68;2.03;;;23.40;99.90;;;;;;4978648;28;20122;-91
2022/07/18 07:56:26;;;;;;;5.32;2.20;;;23.60;99.90;;;;;;4958495;28;20039;-91
2022/07/18 07:58:51;;;;;;;4.57;2.20;;;23.80;99.90;;;;;;4971153;28;20059;-91
2022/07/18 08:01:19;;;;;;;6.45;2.33;;;23.70;99.90;;;;;;4963996;28;20092;-91
2022/07/18 08:03:48;;;;;;;4.72;2.03;;;23.80;99.90;;;;;;4976707;28;20357;-90
2022/07/18 08:06:14;;;;;;;4.50;2.03;;;23.80;99.90;;;;;;4968575;28;20058;-91
2022/07/18 08:08:39;;;;;;;7.13;2.70;;;24.00;99.90;;;;;;4965105;28;20177;-90
2022/07/18 08:11:06;;;;;;;3.67;1.98;;;24.30;99.90;;;;;;4967496;28;20369;-91
2022/07/18 08:13:31;;;;;;;7.18;2.10;;;24.30;99.90;;;;;;4968076;28;20050;-91
2022/07/18 08:15:57;;;;;;;5.53;1.83;;;24.30;99.90;;;;;;4955718;28;20050;-90
2022/07/18 08:18:23;;;;;;;4.93;2.25;;;24.30;99.90;;;;;;4964503;28;20046;-91
2022/07/18 08:20:49;;;;;;;3.95;1.90;;;24.30;99.90;;;;;;4975667;28;20102;-92
2022/07/18 08:23:16;;;;;;;5.78;2.42;;;24.40;99.90;;;;;;4960049;28;20039;-91
2022/07/18 08:25:44;;;;;;;4.32;2.13;;;24.50;99.90;;;;;;4958931;28;20042;-92
2022/07/18 08:28:11;;;;;;;4.50;1.90;;;24.70;99.90;;;;;;4977989;28;20089;-90
2022/07/18 08:30:40;;;;;;;5.97;2.40;;;25.00;99.90;;;;;;4966093;28;20056;-92
2022/07/18 08:33:07;;;;;;;4.93;2.22;;;25.30;99.90;;;;;;4961110;28;20057;-91
2022/07/18 08:35:33;;;;;;;6.55;2.08;;;25.20;99.90;;;;;;4966715;28;20125;-90
2022/07/18 08:38:00;;;;;;;3.92;2.17;;;25.60;99.90;;;;;;4955611;28;20050;-91
2022/07/18 08:40:26;;;;;;;4.95;2.38;;;25.90;99.90;;;;;;4973812;28;20050;-90
2022/07/18 08:42:53;;;;;;;6.88;2.00;;;26.20;99.90;;;;;;4967896;28;20609;-91
2022/07/18 08:45:23;;;;;;;4.60;1.90;;;26.10;99.90;;;;;;4970923;28;20053;-90
2022/07/18 08:47:50;;;;;;;5.88;1.77;;;26.20;99.90;;;;;;4967477;28;20050;-91
2022/07/18 08:50:16;;;;;;;3.45;1.80;;;26.40;99.90;;;;;;4961758;28;20043;-90
2022/07/18 08:52:43;;;;;;;5.80;2.15;;;26.50;99.90;;;;;;4962062;28;20050;-89
2022/07/18 08:55:10;;;;;;;4.90;2.13;;;26.50;99.90;;;;;;4965482;28;20165;-90
2022/07/18 08:57:36;;;;;;;6.53;1.83;;;26.50;99.90;;;;;;4961748;28;20046;-89
2022/07/18 09:00:08;;;;;;;6.22;1.98;;;26.30;99.90;;;;;;4957487;28;20089;-90
2022/07/18 09:02:34;;;;;;;7.88;2.42;;;26.20;99.90;;;;;;4971482;28;20335;-91
2022/07/18 09:05:02;;;;;;;4.28;2.10;;;26.20;99.90;;;;;;4980021;28;20054;-90
2022/07/18 09:07:30;;;;;;;3.88;1.70;;;26.00;99.90;;;;;;4969111;28;20042;-90
2022/07/18 09:09:58;;;;;;;3.92;1.88;;;25.80;99.90;;;;;;4974435;28;20170;-90
2022/07/18 09:12:30;;;;;;;3.90;1.90;;;25.90;99.90;;;;;;4957817;28;20042;-90
2022/07/18 09:14:57;;;;;;;4.07;1.67;;;25.90;99.90;;;;;;4962153;28;20598;-89
2022/07/18 09:17:26;;;;;;;5.43;1.58;;;26.00;99.90;;;;;;4971384;28;20181;-88
2022/07/18 09:20:14;;;;;;;3.78;1.52;;;26.40;99.90;;;;;;4975645;28;20038;-90
2022/07/18 09:22:42;;;;;;;4.22;1.52;;;26.70;99.90;;;;;;4968685;28;20046;-89
2022/07/18 09:25:13;;;;;;;6.38;2.00;;;26.80;99.90;;;;;;4960380;28;20070;-90
2022/07/18 09:27:41;;;;;;;3.30;1.65;;;26.90;99.90;;;;;;4969457;28;20141;-90
2022/07/18 09:30:12;;;;;;;3.78;1.70;;;26.90;99.90;;;;;;4969190;28;20046;-89
2022/07/18 09:32:40;;;;;;;4.63;2.15;;;26.80;99.90;;;;;;4961084;28;20042;-90
2022/07/18 09:35:09;;;;;;;3.85;1.80;;;27.10;99.90;;;;;;4963807;28;20096;-90
2022/07/18 09:37:35;;;;;;;3.92;1.80;;;27.40;99.90;;;;;;4966305;28;20078;-90
2022/07/18 09:40:18;;;;;;;3.33;1.40;;;27.70;99.90;;;;;;4967401;28;20073;-91
2022/07/18 09:42:52;;;;;;;4.25;1.88;;;27.60;99.90;;;;;;4966978;28;20066;-90
2022/07/18 09:45:28;;;;;;;3.03;1.80;;;27.50;99.90;;;;;;4967672;28;20133;-90
2022/07/18 09:47:57;;;;;;;6.75;1.70;;;27.80;99.90;;;;;;4965682;28;20720;-90
2022/07/18 09:50:34;;;;;;;4.35;1.88;;;27.60;99.90;;;;;;4977231;28;20042;-89
2022/07/18 09:53:15;;;;;;;4.60;1.70;;;27.70;99.90;;;;;;4961974;28;20047;-90
2022/07/18 09:55:43;;;;;;;5.10;1.70;;;27.70;99.90;;;;;;4968747;28;20459;-90
2022/07/18 09:58:10;;;;;;;6.40;1.85;;;27.80;99.90;;;;;;4969951;28;20059;-89
2022/07/18 10:00:39;;;;;;;19.63;2.67;;;27.80;99.90;;;;;;4967047;28;20097;-89
2022/07/18 10:03:06;;;;;;;20.77;2.75;;;27.90;99.90;;;;;;4970539;28;20218;-89
2022/07/18 10:05:35;;;;;;;6.85;2.10;;;28.20;99.90;;;;;;4976905;28;20047;-90
2022/07/18 10:08:04;;;;;;;6.13;2.20;;;28.50;99.90;;;;;;4962509;28;20137;-91
2022/07/18 10:10:30;;;;;;;4.00;1.85;;;28.70;99.90;;;;;;4955891;28;20458;-90
2022/07/18 10:12:59;;;;;;;3.90;1.70;;;28.70;99.90;;;;;;4979998;28;20042;-89
2022/07/18 10:15:28;;;;;;;4.53;1.50;;;28.80;99.90;;;;;;4958047;28;20065;-90
2022/07/18 10:17:56;;;;;;;4.43;2.15;;;28.70;99.90;;;;;;4972456;28;20047;-90
2022/07/18 10:20:48;;;;;;;5.90;2.30;;;28.60;99.90;;;;;;4966420;28;20475;-90
2022/07/18 10:23:18;;;;;;;6.70;2.40;;;28.70;99.90;;;;;;4947262;28;20215;-90
2022/07/18 10:25:44;;;;;;;3.65;1.90;;;28.70;99.90;;;;;;4959905;28;20039;-90
2022/07/18 10:28:13;;;;;;;5.53;2.30;;;28.90;99.90;;;;;;4970487;28;20061;-89
2022/07/18 10:30:49;;;;;;;6.60;2.28;;;29.00;99.90;;;;;;4965216;28;20054;-90
2022/07/18 10:33:40;;;;;;;3.95;2.25;;;28.70;99.90;;;;;;4960008;28;20461;-89
2022/07/18 10:36:12;;;;;;;3.42;2.30;;;28.80;99.90;;;;;;4955559;28;20065;-90
2022/07/18 10:38:39;;;;;;;5.05;2.42;;;29.20;99.90;;;;;;4966037;28;20051;-91
2022/07/18 10:41:10;;;;;;;4.88;2.50;;;29.20;99.90;;;;;;4976504;28;20088;-91
2022/07/18 10:43:44;;;;;;;4.70;2.63;;;29.30;99.90;;;;;;4967098;28;20158;-91
2022/07/18 10:46:11;;;;;;;4.75;2.42;;;29.70;99.90;;;;;;4969673;28;20042;-89
2022/07/18 10:48:37;;;;;;;6.10;2.35;;;29.90;99.90;;;;;;4979969;28;20053;-89
2022/07/18 10:51:15;;;;;;;3.88;2.40;;;30.10;99.90;;;;;;4974889;28;20056;-89
2022/07/18 10:53:59;;;;;;;4.80;3.15;;;30.10;99.90;;;;;;4965660;28;20483;-90
2022/07/18 10:56:28;;;;;;;3.70;2.67;;;30.00;99.90;;;;;;4971126;28;20046;-89
2022/07/18 10:58:57;;;;;;;4.22;2.35;;;29.70;99.90;;;;;;4976837;28;20128;-89
2022/07/18 11:01:24;;;;;;;5.15;2.70;;;29.70;99.90;;;;;;4974469;28;20077;-89
2022/07/18 11:03:50;;;;;;;4.53;2.40;;;30.20;99.90;;;;;;4983558;28;20186;-90
2022/07/18 11:06:16;;;;;;;4.82;3.00;;;29.90;99.90;;;;;;4971833;28;20049;-90
2022/07/18 11:08:42;;;;;;;6.38;2.53;;;29.80;99.90;;;;;;4974937;28;20054;-89
2022/07/18 11:11:12;;;;;;;4.05;2.42;;;30.10;99.90;;;;;;4959664;28;20058;-89
2022/07/18 11:13:40;;;;;;;5.57;2.88;;;30.30;99.90;;;;;;4965765;28;20112;-89
2022/07/18 11:16:16;;;;;;;3.95;2.55;;;30.70;99.90;;;;;;4959944;28;20046;-89
2022/07/18 11:18:42;;;;;;;8.15;2.83;;;30.80;99.90;;;;;;4964700;28;20039;-89
2022/07/18 11:21:18;;;;;;;3.75;2.70;;;30.70;99.90;;;;;;4966967;28;20050;-88
2022/07/18 11:23:46;;;;;;;3.97;2.55;;;30.40;99.90;;;;;;4967435;28;20049;-89
2022/07/18 11:26:43;;;;;;;3.80;2.55;;;30.70;99.90;;;;;;4973043;28;20522;-89
2022/07/18 11:29:13;;;;;;;6.38;2.70;;;31.00;99.90;;;;;;4980982;28;20054;-90
2022/07/18 11:31:43;;;;;;;5.72;2.75;;;31.20;99.90;;;;;;4964021;28;20325;-89
2022/07/18 11:34:09;;;;;;;4.53;2.33;;;31.30;99.90;;;;;;4974981;28;20054;-90
2022/07/18 11:36:38;;;;;;;5.75;2.90;;;31.50;99.90;;;;;;4964926;28;20046;-89
2022/07/18 11:39:04;;;;;;;5.40;2.53;;;31.80;99.90;;;;;;4981655;28;20145;-89
2022/07/18 11:41:36;;;;;;;89.45;9.82;;;31.70;99.90;;;;;;4961461;28;20134;-89
2022/07/18 11:44:02;;;;;;;24.83;4.30;;;31.70;99.90;;;;;;4955619;28;20050;-89
2022/07/18 11:46:29;;;;;;;6.63;2.83;;;31.70;99.90;;;;;;4964440;28;20049;-89
2022/07/18 11:48:58;;;;;;;5.60;3.03;;;32.00;99.90;;;;;;4979257;28;20478;-88
2022/07/18 11:51:33;;;;;;;6.50;3.70;;;32.00;99.90;;;;;;4957818;28;20128;-90
2022/07/18 11:53:59;;;;;;;4.20;2.70;;;31.70;99.90;;;;;;4975999;28;20046;-89
2022/07/18 11:56:25;;;;;;;4.28;2.60;;;31.90;99.90;;;;;;4981799;28;20054;-88
2022/07/18 11:58:51;;;;;;;5.57;2.80;;;32.00;99.90;;;;;;4960164;28;20055;-89
2022/07/18 12:01:21;;;;;;;8.23;2.83;;;32.00;99.90;;;;;;4975959;28;20069;-88
2022/07/18 12:03:49;;;;;;;5.32;2.85;;;32.20;99.90;;;;;;4973946;28;20541;-90
2022/07/18 12:06:16;;;;;;;4.97;2.65;;;32.00;99.90;;;;;;4963523;28;20038;-89
2022/07/18 12:08:44;;;;;;;5.07;3.05;;;31.90;99.90;;;;;;4973277;28;20109;-89
2022/07/18 12:11:13;;;;;;;4.70;3.13;;;31.90;99.90;;;;;;4955312;28;20203;-88
2022/07/18 12:13:54;;;;;;;5.97;2.60;;;32.20;99.90;;;;;;4966824;28;20050;-89
2022/07/18 12:16:34;;;;;;;4.45;2.95;;;32.20;99.90;;;;;;4967118;28;20042;-90
2022/07/18 12:19:10;;;;;;;4.85;2.80;;;31.80;99.90;;;;;;4978676;28;20465;-88
2022/07/18 12:21:53;;;;;;;3.17;2.57;;;32.20;99.90;;;;;;4966629;28;20363;-89
2022/07/18 12:24:25;;;;;;;5.35;2.63;;;32.50;99.90;;;;;;4970991;28;20337;-89
2022/07/18 12:27:13;;;;;;;3.97;2.78;;;32.40;99.90;;;;;;4976681;28;20039;-89
2022/07/18 12:30:08;;;;;;;4.63;2.75;;;31.80;99.90;;;;;;4965835;28;20459;-89
2022/07/18 12:32:53;;;;;;;5.72;2.70;;;31.60;99.90;;;;;;4978091;28;20055;-88
2022/07/18 12:35:36;;;;;;;3.70;2.83;;;32.00;99.90;;;;;;4958202;28;20045;-89
2022/07/18 12:38:15;;;;;;;4.45;2.60;;;32.20;99.90;;;;;;4965294;28;20050;-89
2022/07/18 12:40:52;;;;;;;4.50;2.90;;;32.70;99.90;;;;;;4980009;28;20116;-90
2022/07/18 12:43:28;;;;;;;5.18;2.75;;;32.60;99.90;;;;;;4981622;28;20119;-89
2022/07/18 12:45:56;;;;;;;4.72;2.85;;;32.80;99.90;;;;;;4983616;28;20045;-89
2022/07/18 12:48:22;;;;;;;3.95;2.67;;;32.50;99.90;;;;;;4977782;28;20097;-88
2022/07/18 12:51:06;;;;;;;5.10;2.72;;;32.60;99.90;;;;;;4959292;28;20078;-88
2022/07/18 12:53:34;;;;;;;4.33;2.47;;;32.00;99.90;;;;;;4963916;28;20043;-88
2022/07/18 12:56:00;;;;;;;4.47;2.50;;;31.30;99.90;;;;;;4966425;28;20049;-90